sensor_id;sensor_type;location;lat;lon;timestamp;pressure;altitude;pressure_sealevel;temperature;humidity
63027;BME280;59113;51.434;-2.004;2022-08-19T08:16:39;100686.19;;;27.37;64.11
63027;BME280;59113;51.434;-2.004;2022-08-19T08:19:24;100685.66;;;28.09;56.55
63027;BME280;59113;51.434;-2.004;2022-08-19T08:24:35;100679.47;;;28.53;52.68
63027;BME280;59113;51.434;-2.004;2022-08-19T08:36:19;100690.97;;;29.05;46.89
63027;BME280;59113;51.434;-2.004;2022-08-19T08:38:45;100696.75;;;29.62;43.22
63027;BME280;59113;51.434;-2.004;2022-08-19T08:41:18;100699.00;;;29.60;42.61
63027;BME280;59113;51.434;-2.004;2022-08-19T08:43:49;100708.72;;;29.49;39.78
63027;BME280;59113;51.434;-2.004;2022-08-19T08:52:39;100710.13;;;29.69;39.41
63027;BME280;59113;51.434;-2.004;2022-08-19T08:55:17;100692.25;;;29.84;39.25
63027;BME280;59113;51.434;-2.004;2022-08-19T09:00:48;100707.03;;;29.48;39.20
63027;BME280;59113;51.434;-2.004;2022-08-19T09:16:16;100712.66;;;28.26;38.46
63027;BME280;59113;51.434;-2.004;2022-08-19T09:18:56;100712.56;;;28.45;37.61
63027;BME280;59113;51.434;-2.004;2022-08-19T09:21:32;100707.22;;;28.48;36.48
63027;BME280;59113;51.434;-2.004;2022-08-19T09:23:57;100716.06;;;28.09;36.88
63027;BME280;59113;51.434;-2.004;2022-08-19T09:29:46;100719.00;;;27.85;38.23
63027;BME280;59113;51.434;-2.004;2022-08-19T09:32:15;100720.31;;;27.74;37.03
63027;BME280;59113;51.434;-2.004;2022-08-19T09:34:44;100703.97;;;28.19;37.13
63027;BME280;59113;51.434;-2.004;2022-08-19T09:40:44;100698.69;;;28.58;36.21
63027;BME280;59113;51.434;-2.004;2022-08-19T09:43:19;100707.94;;;28.40;36.34
63027;BME280;59113;51.434;-2.004;2022-08-19T09:45:44;100702.09;;;28.55;37.02
63027;BME280;59113;51.434;-2.004;2022-08-19T09:51:45;100701.22;;;29.50;34.63
63027;BME280;59113;51.434;-2.004;2022-08-19T09:54:14;100710.72;;;29.57;34.78
63027;BME280;59113;51.434;-2.004;2022-08-19T09:56:42;100702.84;;;29.51;35.46
63027;BME280;59113;51.434;-2.004;2022-08-19T09:59:08;100700.22;;;30.16;34.03
63027;BME280;59113;51.434;-2.004;2022-08-19T10:01:34;100708.50;;;30.08;34.02
63027;BME280;59113;51.434;-2.004;2022-08-19T10:04:00;100699.03;;;30.74;33.26
63027;BME280;59113;51.434;-2.004;2022-08-19T10:06:29;100702.22;;;30.33;32.72
63027;BME280;59113;51.434;-2.004;2022-08-19T10:08:58;100710.28;;;31.04;32.91
63027;BME280;59113;51.434;-2.004;2022-08-19T10:11:25;100713.22;;;31.25;31.96
63027;BME280;59113;51.434;-2.004;2022-08-19T10:13:51;100711.09;;;30.61;32.68
63027;BME280;59113;51.434;-2.004;2022-08-19T10:16:19;100725.47;;;30.80;31.49
63027;BME280;59113;51.434;-2.004;2022-08-19T10:18:46;100713.09;;;30.87;32.37
63027;BME280;59113;51.434;-2.004;2022-08-19T10:21:15;100715.00;;;31.38;30.49
63027;BME280;59113;51.434;-2.004;2022-08-19T10:23:44;100716.00;;;30.99;31.13
63027;BME280;59113;51.434;-2.004;2022-08-19T10:26:14;100716.50;;;30.18;31.49
63027;BME280;59113;51.434;-2.004;2022-08-19T10:28:40;100723.84;;;30.97;31.76
63027;BME280;59113;51.434;-2.004;2022-08-19T10:31:19;100728.69;;;31.52;30.46
63027;BME280;59113;51.434;-2.004;2022-08-19T10:33:46;100715.66;;;31.09;31.36
63027;BME280;59113;51.434;-2.004;2022-08-19T10:36:37;100733.31;;;31.22;30.88
63027;BME280;59113;51.434;-2.004;2022-08-19T10:39:07;100723.66;;;30.67;31.59
63027;BME280;59113;51.434;-2.004;2022-08-19T10:41:36;100713.56;;;30.89;31.11
63027;BME280;59113;51.434;-2.004;2022-08-19T10:44:05;100717.16;;;30.89;30.51
63027;BME280;59113;51.434;-2.004;2022-08-19T10:46:50;100714.50;;;31.19;30.73
63027;BME280;59113;51.434;-2.004;2022-08-19T10:49:17;100709.16;;;30.88;31.36
63027;BME280;59113;51.434;-2.004;2022-08-19T10:51:44;100718.44;;;31.09;31.13
63027;BME280;59113;51.434;-2.004;2022-08-19T10:54:28;100705.69;;;30.65;31.29
63027;BME280;59113;51.434;-2.004;2022-08-19T11:04:06;100712.94;;;28.24;35.38
63027;BME280;59113;51.434;-2.004;2022-08-19T11:09:56;100700.28;;;25.75;41.84
63027;BME280;59113;51.434;-2.004;2022-08-19T11:15:28;100707.06;;;25.24;45.91
63027;BME280;59113;51.434;-2.004;2022-08-19T11:21:40;100712.38;;;26.46;43.89
63027;BME280;59113;51.434;-2.004;2022-08-19T11:24:09;100715.38;;;26.25;45.41
63027;BME280;59113;51.434;-2.004;2022-08-19T11:26:37;100720.81;;;26.30;46.39
63027;BME280;59113;51.434;-2.004;2022-08-19T11:29:04;100717.78;;;26.93;42.00
63027;BME280;59113;51.434;-2.004;2022-08-19T11:31:33;100713.00;;;26.43;43.98
63027;BME280;59113;51.434;-2.004;2022-08-19T11:34:02;100714.75;;;26.33;44.58
63027;BME280;59113;51.434;-2.004;2022-08-19T11:39:56;100710.50;;;27.35;43.76
63027;BME280;59113;51.434;-2.004;2022-08-19T11:42:22;100718.00;;;28.36;39.78
63027;BME280;59113;51.434;-2.004;2022-08-19T11:45:06;100718.25;;;28.98;38.18
63027;BME280;59113;51.434;-2.004;2022-08-19T11:47:59;100719.28;;;28.88;38.23
63027;BME280;59113;51.434;-2.004;2022-08-19T11:50:25;100713.97;;;29.59;37.79
63027;BME280;59113;51.434;-2.004;2022-08-19T11:52:55;100723.59;;;29.62;36.29
63027;BME280;59113;51.434;-2.004;2022-08-19T11:55:21;100721.75;;;29.80;36.03
63027;BME280;59113;51.434;-2.004;2022-08-19T11:57:47;100717.38;;;29.34;36.75
63027;BME280;59113;51.434;-2.004;2022-08-19T12:00:13;100713.78;;;29.87;35.86
63027;BME280;59113;51.434;-2.004;2022-08-19T12:02:39;100714.31;;;29.97;36.04
63027;BME280;59113;51.434;-2.004;2022-08-19T12:05:05;100700.16;;;29.37;36.32
63027;BME280;59113;51.434;-2.004;2022-08-19T12:10:34;100704.88;;;27.40;41.55
63027;BME280;59113;51.434;-2.004;2022-08-19T12:13:00;100718.91;;;28.18;39.91
63027;BME280;59113;51.434;-2.004;2022-08-19T12:15:26;100714.09;;;28.87;38.97
63027;BME280;59113;51.434;-2.004;2022-08-19T12:25:14;100699.66;;;26.07;44.58
63027;BME280;59113;51.434;-2.004;2022-08-19T12:31:02;100699.84;;;24.94;49.57
63027;BME280;59113;51.434;-2.004;2022-08-19T12:36:51;100716.59;;;23.33;58.28
63027;BME280;59113;51.434;-2.004;2022-08-19T12:39:17;100722.28;;;22.81;64.04
63027;BME280;59113;51.434;-2.004;2022-08-19T12:42:08;100724.09;;;22.39;67.70
63027;BME280;59113;51.434;-2.004;2022-08-19T12:58:01;100711.13;;;23.23;60.72
63027;BME280;59113;51.434;-2.004;2022-08-19T13:00:28;100714.25;;;24.22;56.71
63027;BME280;59113;51.434;-2.004;2022-08-19T13:02:53;100710.22;;;25.42;48.04
63027;BME280;59113;51.434;-2.004;2022-08-19T13:05:25;100707.13;;;26.49;45.08
63027;BME280;59113;51.434;-2.004;2022-08-19T13:08:10;100712.84;;;26.90;42.08
63027;BME280;59113;51.434;-2.004;2022-08-19T13:10:40;100703.75;;;26.52;43.18
63027;BME280;59113;51.434;-2.004;2022-08-19T13:13:07;100697.06;;;25.92;44.46
63027;BME280;59113;51.434;-2.004;2022-08-19T13:15:39;100694.03;;;25.64;45.20
63027;BME280;59113;51.434;-2.004;2022-08-19T13:21:13;100703.38;;;27.15;41.92
63027;BME280;59113;51.434;-2.004;2022-08-19T13:23:40;100704.94;;;26.65;41.66
63027;BME280;59113;51.434;-2.004;2022-08-19T13:29:34;100693.41;;;26.20;43.71
63027;BME280;59113;51.434;-2.004;2022-08-19T13:35:56;100688.44;;;25.45;44.63
63027;BME280;59113;51.434;-2.004;2022-08-19T13:38:23;100691.06;;;24.92;46.42
63027;BME280;59113;51.434;-2.004;2022-08-19T13:40:53;100695.50;;;24.44;48.91
63027;BME280;59113;51.434;-2.004;2022-08-19T13:43:20;100702.16;;;24.23;51.37
63027;BME280;59113;51.434;-2.004;2022-08-19T13:45:53;100702.00;;;23.94;53.60
63027;BME280;59113;51.434;-2.004;2022-08-19T13:48:21;100692.47;;;23.61;54.16
63027;BME280;59113;51.434;-2.004;2022-08-19T13:50:47;100711.41;;;23.42;53.90
63027;BME280;59113;51.434;-2.004;2022-08-19T13:53:13;100695.22;;;23.25;51.42
63027;BME280;59113;51.434;-2.004;2022-08-19T17:15:49;100773.72;;;21.04;82.76
